createdAt,value
2022-12-29T00:03:53.077Z,101233.53
2022-12-29T00:08:57.663Z,101217.56
2022-12-29T00:14:00.584Z,101226.69
2022-12-29T00:19:04.189Z,101206.03
2022-12-29T00:24:11.241Z,101206.31
2022-12-29T00:29:14.205Z,101222.25
2022-12-29T00:34:17.050Z,101236.81
2022-12-29T00:39:21.931Z,101242.91
2022-12-29T00:44:24.766Z,101260.78
2022-12-29T00:49:27.610Z,101252.50
2022-12-29T00:54:32.877Z,101248.94
2022-12-29T00:59:37.057Z,101209.78
2022-12-29T01:04:40.015Z,101207.06
2022-12-29T01:09:44.547Z,101170.56
2022-12-29T01:14:47.397Z,101184.78
2022-12-29T01:19:50.255Z,101169.84
2022-12-29T01:24:54.791Z,101175.41
2022-12-29T01:29:57.641Z,101177.22
2022-12-29T01:35:00.465Z,101179.84
2022-12-29T01:40:05.379Z,101159.72
2022-12-29T01:45:11.269Z,101139.75
2022-12-29T01:50:16.311Z,101108.66
2022-12-29T01:55:21.278Z,101105.91
2022-12-29T02:00:24.119Z,101082.28
2022-12-29T02:05:29.686Z,101082.22
2022-12-29T02:10:36.341Z,101083.06
2022-12-29T02:15:47.161Z,101106.84
2022-12-29T02:21:08.261Z,101092.97
2022-12-29T02:26:31.658Z,101098.28
2022-12-29T02:31:41.660Z,101107.00
2022-12-29T02:36:46.875Z,101085.34
2022-12-29T02:41:52.729Z,101086.13
2022-12-29T02:47:02.196Z,101068.97
2022-12-29T02:52:07.307Z,101068.19
2022-12-29T02:57:12.314Z,101072.59
2022-12-29T03:02:27.472Z,101076.28
2022-12-29T03:07:35.812Z,101098.00
2022-12-29T03:12:43.730Z,101108.41
2022-12-29T03:17:53.361Z,101097.94
2022-12-29T03:22:59.988Z,101102.63
2022-12-29T03:28:04.077Z,101135.66
2022-12-29T03:33:10.482Z,101142.47
2022-12-29T03:38:15.592Z,101167.81
2022-12-29T03:43:18.914Z,101158.38
2022-12-29T03:48:23.470Z,101151.22
2022-12-29T03:53:26.427Z,101149.31
2022-12-29T03:58:29.252Z,101179.88
2022-12-29T04:03:33.825Z,101200.84
2022-12-29T04:08:37.453Z,101214.16
2022-12-29T04:13:40.314Z,101207.13
2022-12-29T04:18:44.807Z,101203.75
2022-12-29T04:23:47.722Z,101171.78
2022-12-29T04:28:50.595Z,101140.38
2022-12-29T04:33:56.051Z,101124.75
2022-12-29T04:38:59.103Z,101099.47
2022-12-29T04:44:01.951Z,101143.03
2022-12-29T04:49:06.481Z,101152.59
2022-12-29T04:54:10.414Z,101135.28
2022-12-29T04:59:13.301Z,101135.25
2022-12-29T05:04:17.782Z,101120.53
2022-12-29T05:09:20.688Z,101108.31
2022-12-29T05:14:23.696Z,101084.19
2022-12-29T05:19:28.207Z,101137.09
2022-12-29T05:24:31.759Z,101152.66
2022-12-29T05:29:34.656Z,101121.38
2022-12-29T05:34:39.148Z,101074.56
2022-12-29T05:39:42.042Z,101067.78
2022-12-29T05:44:44.896Z,101068.56
2022-12-29T05:49:49.436Z,101051.91
2022-12-29T05:54:52.389Z,101065.00
2022-12-29T05:59:55.216Z,101065.19
2022-12-29T06:04:59.706Z,101075.50
2022-12-29T06:10:02.673Z,101052.31
2022-12-29T06:15:06.011Z,101035.72
2022-12-29T06:20:11.779Z,101017.41
2022-12-29T06:25:14.811Z,101014.72
2022-12-29T06:30:17.789Z,100999.19
2022-12-29T06:35:22.524Z,101028.94
2022-12-29T06:40:25.394Z,101030.56
2022-12-29T06:45:28.315Z,101039.53
2022-12-29T06:50:32.866Z,101041.78
2022-12-29T06:55:35.765Z,101010.72
2022-12-29T07:00:38.597Z,101027.66
2022-12-29T07:05:43.166Z,101010.28
2022-12-29T07:10:46.042Z,100962.06
2022-12-29T07:15:48.894Z,100957.00
2022-12-29T07:20:53.401Z,100978.81
2022-12-29T07:26:00.877Z,101006.91
2022-12-29T07:31:03.801Z,101025.97
2022-12-29T07:36:08.957Z,101018.78
2022-12-29T07:41:11.845Z,101022.38
2022-12-29T07:46:56.512Z,101060.50
2022-12-29T07:51:39.986Z,101028.34
2022-12-29T07:56:42.813Z,101011.88
2022-12-29T08:01:45.724Z,101069.41
2022-12-29T08:06:50.304Z,101046.75
2022-12-29T08:11:53.174Z,101038.13
2022-12-29T08:16:56.060Z,101023.25
2022-12-29T08:22:01.556Z,101022.41
2022-12-29T08:27:13.165Z,100998.06
2022-12-29T08:32:20.827Z,100994.56
2022-12-29T08:37:30.885Z,100972.09
2022-12-29T08:42:34.706Z,100948.63
2022-12-29T08:47:37.700Z,100918.13
2022-12-29T08:52:42.218Z,100913.06
2022-12-29T08:57:45.065Z,100901.16
2022-12-29T09:02:48.063Z,100922.97
2022-12-29T09:07:53.607Z,100943.56
2022-12-29T09:12:56.463Z,100915.66
2022-12-29T09:17:59.350Z,100947.91
2022-12-29T09:23:03.842Z,100938.47
2022-12-29T09:28:06.700Z,100941.00
2022-12-29T09:33:09.644Z,100945.56
2022-12-29T09:38:14.135Z,100954.91
2022-12-29T09:43:26.276Z,100952.22
2022-12-29T09:48:31.076Z,100946.94
2022-12-29T09:53:38.162Z,100926.16
2022-12-29T09:58:43.568Z,100932.19
2022-12-29T10:03:48.647Z,100921.75
2022-12-29T10:08:59.261Z,100956.44
2022-12-29T10:14:15.722Z,100957.25
2022-12-29T10:19:32.761Z,100967.63
2022-12-29T10:24:39.323Z,100978.19
2022-12-29T10:29:44.224Z,100967.88
2022-12-29T10:34:49.083Z,100986.06
2022-12-29T10:39:54.265Z,100986.00
2022-12-29T10:44:58.235Z,100981.69
2022-12-29T10:50:01.856Z,100978.38
2022-12-29T10:55:09.950Z,100976.50
2022-12-29T11:00:14.446Z,100983.47
2022-12-29T11:05:21.988Z,100986.00
2022-12-29T11:10:36.050Z,100974.63
2022-12-29T11:15:40.919Z,100980.84
2022-12-29T11:20:43.769Z,100980.97
2022-12-29T11:25:48.326Z,100981.06
2022-12-29T11:31:00.578Z,100969.69
2022-12-29T11:36:06.050Z,100989.53
2022-12-29T11:41:13.644Z,100974.59
2022-12-29T11:46:18.648Z,100975.41
2022-12-29T11:51:25.614Z,100985.06
2022-12-29T11:56:40.844Z,100959.94
2022-12-29T12:01:45.326Z,100921.75
2022-12-29T12:06:50.153Z,100896.66
2022-12-29T12:11:56.480Z,100902.75
2022-12-29T12:17:01.856Z,100880.13
2022-12-29T12:22:09.669Z,100906.13
2022-12-29T12:27:17.079Z,100946.34
2022-12-29T12:32:22.786Z,100915.91
2022-12-29T12:37:49.973Z,100885.75
2022-12-29T12:42:57.622Z,100872.88
2022-12-29T12:48:07.619Z,100844.06
2022-12-29T12:53:24.865Z,100841.53
2022-12-29T12:58:33.273Z,100840.66
2022-12-29T13:03:46.354Z,100832.09
2022-12-29T13:09:00.614Z,100789.63
2022-12-29T13:14:16.438Z,100824.41
2022-12-29T13:19:22.552Z,100805.34
2022-12-29T13:24:30.486Z,100808.88
2022-12-29T13:29:37.912Z,100815.00
2022-12-29T13:34:49.169Z,100793.47
2022-12-29T13:39:54.279Z,100817.00
2022-12-29T13:45:01.376Z,100823.19
2022-12-29T13:50:05.478Z,100835.47
2022-12-29T13:55:21.831Z,100857.81
2022-12-29T14:00:27.907Z,100835.25
2022-12-29T14:05:32.001Z,100832.63
2022-12-29T14:10:35.598Z,100824.72
2022-12-29T14:15:42.504Z,100819.50
2022-12-29T14:20:53.608Z,100839.56
2022-12-29T14:26:00.830Z,100850.97
2022-12-29T14:31:06.564Z,100857.75
2022-12-29T14:36:21.828Z,100864.50
2022-12-29T14:41:29.693Z,100882.88
2022-12-29T14:46:48.358Z,100871.69
2022-12-29T14:51:52.124Z,100892.47
2022-12-29T14:56:58.768Z,100884.56
2022-12-29T15:02:05.249Z,100911.59
2022-12-29T15:07:10.808Z,100876.81
2022-12-29T15:12:19.077Z,100874.16
2022-12-29T15:17:28.857Z,100875.16
2022-12-29T15:22:32.120Z,100876.00
2022-12-29T15:27:34.968Z,100885.41
2022-12-29T15:32:44.071Z,100854.03
2022-12-29T15:37:46.926Z,100881.75
2022-12-29T15:42:54.663Z,100873.03
2022-12-29T15:48:00.301Z,100863.44
2022-12-29T15:53:03.672Z,100884.97
2022-12-29T15:58:07.839Z,100893.56
2022-12-29T16:03:16.472Z,100888.25
2022-12-29T16:08:33.853Z,100878.56
2022-12-29T16:13:40.690Z,100884.69
2022-12-29T16:18:45.614Z,100891.50
2022-12-29T16:23:50.493Z,100911.41
2022-12-29T16:28:56.089Z,100922.84
2022-12-29T16:34:00.732Z,100952.22
2022-12-29T16:39:36.268Z,100959.09
2022-12-29T16:44:39.116Z,100946.84
2022-12-29T16:49:44.962Z,100958.84
2022-12-29T16:54:50.514Z,100974.47
2022-12-29T16:59:54.017Z,100971.84
2022-12-29T17:04:58.578Z,100990.75
2022-12-29T17:10:01.485Z,101009.88
2022-12-29T17:15:05.117Z,101023.78
2022-12-29T17:20:15.811Z,101015.91
2022-12-29T17:25:19.712Z,101013.31
2022-12-29T17:30:27.118Z,101008.97
2022-12-29T17:35:34.298Z,101022.28
2022-12-29T17:40:37.144Z,101039.84
2022-12-29T17:45:40.093Z,101046.09
2022-12-29T17:50:45.084Z,101040.13
2022-12-29T17:55:48.125Z,101042.63
2022-12-29T18:00:52.117Z,101047.69
2022-12-29T18:05:57.127Z,101051.25
2022-12-29T18:11:00.139Z,101055.53
2022-12-29T18:16:03.059Z,101055.19
2022-12-29T18:21:07.698Z,101052.66
2022-12-29T18:26:14.617Z,101055.59
2022-12-29T18:31:18.762Z,101059.81
2022-12-29T18:36:23.583Z,101054.53
2022-12-29T18:41:26.869Z,101049.84
2022-12-29T18:46:29.835Z,101041.66
2022-12-29T18:51:34.431Z,101034.03
2022-12-29T18:56:37.323Z,101040.38
2022-12-29T19:01:40.682Z,101041.34
2022-12-29T19:06:45.283Z,101036.16
2022-12-29T19:11:48.203Z,101030.72
2022-12-29T19:16:51.156Z,101029.06
2022-12-29T19:21:55.650Z,101027.41
2022-12-29T19:26:58.530Z,101027.50
2022-12-29T19:32:01.447Z,101040.09
2022-12-29T19:37:05.978Z,101028.59
2022-12-29T19:42:08.851Z,101031.09
2022-12-29T19:47:11.915Z,101038.94
2022-12-29T19:52:16.465Z,101031.22
2022-12-29T19:57:19.535Z,101025.22
2022-12-29T20:02:23.854Z,100998.38
2022-12-29T20:07:28.428Z,101006.22
2022-12-29T20:12:31.313Z,101032.97
2022-12-29T20:18:11.059Z,101043.91
2022-12-29T20:22:58.716Z,101063.66
2022-12-29T20:28:01.561Z,101061.31
2022-12-29T20:33:07.989Z,101048.19
2022-12-29T20:38:13.326Z,101042.06
2022-12-29T20:43:16.276Z,101031.69
2022-12-29T20:48:19.157Z,101031.81
2022-12-29T20:53:23.637Z,101024.47
2022-12-29T20:58:26.532Z,101016.31
2022-12-29T21:03:29.521Z,101040.56
2022-12-29T21:08:34.035Z,101023.13
2022-12-29T21:13:36.923Z,101010.84
2022-12-29T21:18:40.007Z,100997.28
2022-12-29T21:23:44.598Z,100998.03
2022-12-29T21:28:47.715Z,101004.25
2022-12-29T21:33:51.440Z,101023.44
2022-12-29T21:38:56.481Z,101018.97
2022-12-29T21:44:00.151Z,101015.75
2022-12-29T21:49:03.026Z,101016.59
2022-12-29T21:54:08.311Z,101014.78
2022-12-29T21:59:11.447Z,101016.47
2022-12-29T22:04:14.634Z,101019.16
2022-12-29T22:09:19.159Z,101006.13
2022-12-29T22:14:21.997Z,101009.72
2022-12-29T22:19:24.906Z,101006.09
2022-12-29T22:24:29.429Z,101005.25
2022-12-29T22:29:32.274Z,101012.91
2022-12-29T22:34:35.121Z,101016.47
2022-12-29T22:39:39.600Z,101014.81
2022-12-29T22:44:42.441Z,101007.81
2022-12-29T22:49:45.287Z,101014.88
2022-12-29T22:54:49.779Z,101012.38
2022-12-29T22:59:52.689Z,101026.44
2022-12-29T23:05:04.502Z,101025.31
2022-12-29T23:10:10.224Z,101036.59
2022-12-29T23:15:13.077Z,101038.44
2022-12-29T23:20:15.928Z,101045.81
2022-12-29T23:25:20.499Z,101048.44
2022-12-29T23:30:23.392Z,101036.75
2022-12-29T23:35:26.289Z,101040.38
2022-12-29T23:40:35.967Z,101035.88
2022-12-29T23:45:39.284Z,101033.34
2022-12-29T23:50:42.520Z,101025.63
2022-12-29T23:55:52.977Z,101023.19
